sensor_id;sensor_type;location;lat;lon;timestamp;temperature;humidity
7014;DHT22;3547;50.774;12.918;2022-08-11T16:08:52;42.50;99.90
7014;DHT22;3547;50.774;12.918;2022-08-11T16:58:07;43.50;99.90
7014;DHT22;3547;50.774;12.918;2022-08-11T17:00:53;43.60;99.90
7014;DHT22;3547;50.774;12.918;2022-08-11T17:03:20;43.50;99.90
7014;DHT22;3547;50.774;12.918;2022-08-11T17:06:05;42.20;99.90
7014;DHT22;3547;50.774;12.918;2022-08-11T17:08:53;40.40;99.90
7014;DHT22;3547;50.774;12.918;2022-08-11T17:11:43;38.50;99.90
7014;DHT22;3547;50.774;12.918;2022-08-11T17:14:47;37.10;99.90
7014;DHT22;3547;50.774;12.918;2022-08-11T17:17:36;35.90;99.90
7014;DHT22;3547;50.774;12.918;2022-08-11T17:20:06;34.90;99.90
7014;DHT22;3547;50.774;12.918;2022-08-11T17:22:36;34.20;99.90
7014;DHT22;3547;50.774;12.918;2022-08-11T17:25:24;33.50;99.90
7014;DHT22;3547;50.774;12.918;2022-08-11T17:27:53;32.60;99.90
7014;DHT22;3547;50.774;12.918;2022-08-11T17:30:22;31.90;99.90
7014;DHT22;3547;50.774;12.918;2022-08-11T17:33:11;31.30;99.90
7014;DHT22;3547;50.774;12.918;2022-08-11T17:35:59;30.90;99.90
7014;DHT22;3547;50.774;12.918;2022-08-11T17:38:26;30.50;99.90
7014;DHT22;3547;50.774;12.918;2022-08-11T17:41:03;29.90;99.90
7014;DHT22;3547;50.774;12.918;2022-08-11T17:43:53;29.50;99.90
7014;DHT22;3547;50.774;12.918;2022-08-11T17:46:39;29.10;99.90
7014;DHT22;3547;50.774;12.918;2022-08-11T17:49:26;28.80;99.90
7014;DHT22;3547;50.774;12.918;2022-08-11T17:51:53;28.60;99.90
7014;DHT22;3547;50.774;12.918;2022-08-11T17:54:40;28.30;99.90
7014;DHT22;3547;50.774;12.918;2022-08-11T18:00:49;27.60;99.90
7014;DHT22;3547;50.774;12.918;2022-08-11T18:03:17;27.10;99.90
7014;DHT22;3547;50.774;12.918;2022-08-11T18:06:01;26.80;99.90
7014;DHT22;3547;50.774;12.918;2022-08-11T18:08:32;26.50;99.90
7014;DHT22;3547;50.774;12.918;2022-08-11T18:11:18;26.30;99.90
7014;DHT22;3547;50.774;12.918;2022-08-11T18:14:06;25.90;99.90
7014;DHT22;3547;50.774;12.918;2022-08-11T18:16:52;25.80;99.90
7014;DHT22;3547;50.774;12.918;2022-08-11T18:19:36;25.60;99.90
7014;DHT22;3547;50.774;12.918;2022-08-11T18:22:24;25.40;99.90
7014;DHT22;3547;50.774;12.918;2022-08-11T18:25:13;25.20;99.90
7014;DHT22;3547;50.774;12.918;2022-08-11T18:28:00;25.00;99.90
7014;DHT22;3547;50.774;12.918;2022-08-11T18:30:49;24.90;99.90
7014;DHT22;3547;50.774;12.918;2022-08-11T18:33:47;24.60;99.90
7014;DHT22;3547;50.774;12.918;2022-08-11T18:36:37;24.50;99.90
7014;DHT22;3547;50.774;12.918;2022-08-11T18:39:22;24.30;99.90
7014;DHT22;3547;50.774;12.918;2022-08-11T18:42:13;24.10;99.90
7014;DHT22;3547;50.774;12.918;2022-08-11T18:45:00;23.90;99.90
7014;DHT22;3547;50.774;12.918;2022-08-11T18:51:12;23.60;99.90
7014;DHT22;3547;50.774;12.918;2022-08-11T18:54:02;23.60;99.90
7014;DHT22;3547;50.774;12.918;2022-08-11T18:56:47;23.50;99.90
7014;DHT22;3547;50.774;12.918;2022-08-11T18:59:37;23.40;99.90
7014;DHT22;3547;50.774;12.918;2022-08-11T19:02:24;23.40;99.90
7014;DHT22;3547;50.774;12.918;2022-08-11T19:05:10;23.30;99.90
7014;DHT22;3547;50.774;12.918;2022-08-11T19:07:57;23.30;99.90
7014;DHT22;3547;50.774;12.918;2022-08-11T19:10:44;23.10;99.90
7014;DHT22;3547;50.774;12.918;2022-08-11T19:13:31;23.10;99.90
7014;DHT22;3547;50.774;12.918;2022-08-11T19:16:19;22.90;99.90
7014;DHT22;3547;50.774;12.918;2022-08-11T19:19:06;22.90;99.90
7014;DHT22;3547;50.774;12.918;2022-08-11T19:21:51;22.80;99.90
7014;DHT22;3547;50.774;12.918;2022-08-11T19:24:37;22.70;99.90
7014;DHT22;3547;50.774;12.918;2022-08-11T19:30:46;22.50;99.90
7014;DHT22;3547;50.774;12.918;2022-08-11T19:33:31;22.40;99.90
7014;DHT22;3547;50.774;12.918;2022-08-11T19:36:17;22.30;99.90
7014;DHT22;3547;50.774;12.918;2022-08-11T19:39:03;22.30;99.90
7014;DHT22;3547;50.774;12.918;2022-08-11T19:50:39;21.80;99.90
7014;DHT22;3547;50.774;12.918;2022-08-11T19:53:46;21.70;99.90
7014;DHT22;3547;50.774;12.918;2022-08-11T19:56:34;21.70;99.90
7014;DHT22;3547;50.774;12.918;2022-08-11T19:59:20;21.50;99.90
7014;DHT22;3547;50.774;12.918;2022-08-11T20:02:06;21.50;99.90
7014;DHT22;3547;50.774;12.918;2022-08-11T20:04:51;21.50;99.90
7014;DHT22;3547;50.774;12.918;2022-08-11T20:07:37;21.40;99.90
7014;DHT22;3547;50.774;12.918;2022-08-11T20:10:24;21.20;99.90
7014;DHT22;3547;50.774;12.918;2022-08-11T20:13:13;21.20;99.90
7014;DHT22;3547;50.774;12.918;2022-08-11T20:15:59;20.90;99.90
7014;DHT22;3547;50.774;12.918;2022-08-11T20:18:48;20.80;99.90
7014;DHT22;3547;50.774;12.918;2022-08-11T20:21:36;20.80;99.90
7014;DHT22;3547;50.774;12.918;2022-08-11T20:24:23;20.80;99.90
7014;DHT22;3547;50.774;12.918;2022-08-11T20:27:19;20.60;1.00
7014;DHT22;3547;50.774;12.918;2022-08-11T20:30:07;20.60;1.00
7014;DHT22;3547;50.774;12.918;2022-08-11T20:32:54;20.50;34.20
7014;DHT22;3547;50.774;12.918;2022-08-11T20:35:39;20.60;72.20
7014;DHT22;3547;50.774;12.918;2022-08-11T20:38:28;20.60;99.90
7014;DHT22;3547;50.774;12.918;2022-08-11T20:41:17;20.30;99.90
7014;DHT22;3547;50.774;12.918;2022-08-11T20:44:03;20.20;99.90
7014;DHT22;3547;50.774;12.918;2022-08-11T20:46:49;20.10;99.90
7014;DHT22;3547;50.774;12.918;2022-08-11T20:49:38;20.10;99.90
7014;DHT22;3547;50.774;12.918;2022-08-11T20:52:26;20.00;99.90
7014;DHT22;3547;50.774;12.918;2022-08-11T20:55:13;19.90;77.70
7014;DHT22;3547;50.774;12.918;2022-08-11T20:57:59;19.90;64.40
7014;DHT22;3547;50.774;12.918;2022-08-11T21:00:45;19.90;69.10
7014;DHT22;3547;50.774;12.918;2022-08-11T21:03:31;19.80;74.80
7014;DHT22;3547;50.774;12.918;2022-08-11T21:06:16;19.70;91.40
7014;DHT22;3547;50.774;12.918;2022-08-11T21:09:03;19.70;99.90
7014;DHT22;3547;50.774;12.918;2022-08-11T21:11:53;19.60;99.90
7014;DHT22;3547;50.774;12.918;2022-08-11T21:14:42;19.50;99.90
7014;DHT22;3547;50.774;12.918;2022-08-11T21:20:56;19.40;99.90
7014;DHT22;3547;50.774;12.918;2022-08-11T21:23:50;19.30;1.00
7014;DHT22;3547;50.774;12.918;2022-08-11T21:26:41;19.30;10.50
7014;DHT22;3547;50.774;12.918;2022-08-11T21:29:29;19.30;99.90
7014;DHT22;3547;50.774;12.918;2022-08-11T21:32:17;19.00;99.90
7014;DHT22;3547;50.774;12.918;2022-08-11T21:35:06;19.20;99.90
7014;DHT22;3547;50.774;12.918;2022-08-11T21:37:55;19.20;99.90
7014;DHT22;3547;50.774;12.918;2022-08-11T21:40:41;19.20;99.90
7014;DHT22;3547;50.774;12.918;2022-08-11T21:43:27;19.30;99.90
7014;DHT22;3547;50.774;12.918;2022-08-11T21:46:14;18.70;99.90
7014;DHT22;3547;50.774;12.918;2022-08-11T21:49:00;19.00;99.90
7014;DHT22;3547;50.774;12.918;2022-08-11T21:51:46;18.80;99.90
7014;DHT22;3547;50.774;12.918;2022-08-11T21:54:31;18.70;99.90
7014;DHT22;3547;50.774;12.918;2022-08-11T21:57:16;18.40;99.90
7014;DHT22;3547;50.774;12.918;2022-08-11T22:00:03;18.40;99.90
7014;DHT22;3547;50.774;12.918;2022-08-11T22:02:48;18.80;99.90
7014;DHT22;3547;50.774;12.918;2022-08-11T22:05:33;18.80;99.90
7014;DHT22;3547;50.774;12.918;2022-08-11T22:08:20;18.40;99.90
7014;DHT22;3547;50.774;12.918;2022-08-11T22:11:05;18.60;99.90
7014;DHT22;3547;50.774;12.918;2022-08-11T22:13:50;18.40;99.90
7014;DHT22;3547;50.774;12.918;2022-08-11T22:16:35;18.40;99.90
7014;DHT22;3547;50.774;12.918;2022-08-11T22:19:20;18.40;99.90
7014;DHT22;3547;50.774;12.918;2022-08-11T22:22:07;18.00;1.00
7014;DHT22;3547;50.774;12.918;2022-08-11T22:24:54;18.00;99.90
7014;DHT22;3547;50.774;12.918;2022-08-11T22:31:01;18.00;99.90
7014;DHT22;3547;50.774;12.918;2022-08-11T22:33:48;18.00;99.90
7014;DHT22;3547;50.774;12.918;2022-08-11T22:36:33;18.00;99.90
7014;DHT22;3547;50.774;12.918;2022-08-11T22:39:19;18.00;99.90
7014;DHT22;3547;50.774;12.918;2022-08-11T22:42:05;17.80;99.90
7014;DHT22;3547;50.774;12.918;2022-08-11T22:44:50;17.80;99.90
7014;DHT22;3547;50.774;12.918;2022-08-11T22:47:35;17.70;99.90
7014;DHT22;3547;50.774;12.918;2022-08-11T22:50:23;17.70;99.90
7014;DHT22;3547;50.774;12.918;2022-08-11T22:53:08;17.70;99.90
7014;DHT22;3547;50.774;12.918;2022-08-11T22:55:54;17.60;99.90
7014;DHT22;3547;50.774;12.918;2022-08-11T22:58:39;17.50;99.90
7014;DHT22;3547;50.774;12.918;2022-08-11T23:01:27;17.50;99.90
7014;DHT22;3547;50.774;12.918;2022-08-11T23:04:15;17.40;99.90
7014;DHT22;3547;50.774;12.918;2022-08-11T23:10:24;17.40;99.90
7014;DHT22;3547;50.774;12.918;2022-08-11T23:13:10;17.30;99.90
7014;DHT22;3547;50.774;12.918;2022-08-11T23:15:55;17.30;99.90
7014;DHT22;3547;50.774;12.918;2022-08-11T23:18:41;17.20;99.90
7014;DHT22;3547;50.774;12.918;2022-08-11T23:21:27;17.20;99.90
7014;DHT22;3547;50.774;12.918;2022-08-11T23:24:12;17.10;99.90
7014;DHT22;3547;50.774;12.918;2022-08-11T23:26:58;17.00;99.90
7014;DHT22;3547;50.774;12.918;2022-08-11T23:29:44;17.00;99.90
7014;DHT22;3547;50.774;12.918;2022-08-11T23:32:38;16.90;99.90
7014;DHT22;3547;50.774;12.918;2022-08-11T23:35:25;16.80;99.90
7014;DHT22;3547;50.774;12.918;2022-08-11T23:38:11;16.70;99.90
7014;DHT22;3547;50.774;12.918;2022-08-11T23:40:56;16.70;99.90
7014;DHT22;3547;50.774;12.918;2022-08-11T23:43:43;16.70;99.90
7014;DHT22;3547;50.774;12.918;2022-08-11T23:46:29;16.60;99.90
7014;DHT22;3547;50.774;12.918;2022-08-11T23:49:15;16.60;99.90
7014;DHT22;3547;50.774;12.918;2022-08-11T23:52:00;16.50;99.90
7014;DHT22;3547;50.774;12.918;2022-08-11T23:54:45;16.40;99.90
7014;DHT22;3547;50.774;12.918;2022-08-11T23:57:31;16.40;99.90
